<?xml version="1.0" encoding="UTF-8" standalone="no" ?>
<gpx xmlns="http://www.topografix.com/GPX/1/1" xmlns:xsi="http://www.w3.org/2001/XMLSchema-instance" xsi:schemaLocation="http://www.topografix.com/GPX/1/1 http://www.topografix.com/GPX/1/1/gpx.xsd" version="1.1" creator="VisuGPX - https://www.visugpx.com">
  <metadata>
    <name>randonnée gorge du verdon</name>
  </metadata>
  <wpt lat="45.59193" lon="0.70117">
    <ele>277.8</ele>
  </wpt>
  <wpt lat="45.65739" lon="0.55618">
    <ele>143.3</ele>
  </wpt>
  <wpt lat="45.63709" lon="0.85693">
    <ele>372.8</ele>
  </wpt>
  <wpt lat="45.73184" lon="0.86843">
    <ele>357.9</ele>
  </wpt>
  <wpt lat="45.79874" lon="1.03757">
    <ele>396.8</ele>
  </wpt>
  <wpt lat="45.7679" lon="0.77824">
    <ele>289.8</ele>
    <type><![CDATA[hotel]]></type>
  </wpt>
  <wpt lat="43.84808" lon="6.51102">
    <ele>732.8</ele>
  </wpt>
  <wpt lat="43.77962" lon="6.33969">
    <ele>936.7</ele>
  </wpt>
  <trk>
    <name><![CDATA[22oct 2020]]></name>
    <extensions>
      <line xmlns="http://www.topografix.com/GPX/gpx_style/0/2">
        <color>ff0000</color>
        <width>4</width>
      </line>
    </extensions>
    <trkseg>
      <trkpt lat="43.84806" lon="6.51102">
        <ele>732.7</ele>
      </trkpt>
      <trkpt lat="43.84806" lon="6.51102">
        <ele>732.7</ele>
      </trkpt>
      <trkpt lat="43.8477" lon="6.51191">
        <ele>735.4</ele>
      </trkpt>
      <trkpt lat="43.84715" lon="6.51202">
        <ele>728.6</ele>
      </trkpt>
      <trkpt lat="43.84665" lon="6.51251">
        <ele>726.9</ele>
      </trkpt>
      <trkpt lat="43.84614" lon="6.51233">
        <ele>725.3</ele>
      </trkpt>
      <trkpt lat="43.84553" lon="6.5121">
        <ele>723.4</ele>
      </trkpt>
      <trkpt lat="43.84512" lon="6.51193">
        <ele>722.8</ele>
      </trkpt>
      <trkpt lat="43.84506" lon="6.51132">
        <ele>720.01</ele>
        <time>2017-03-25T13:52:24Z</time>
      </trkpt>
      <trkpt lat="43.84467" lon="6.50967">
        <ele>719.848</ele>
        <time>2017-03-25T13:52:04Z</time>
      </trkpt>
      <trkpt lat="43.84427" lon="6.50969">
        <ele>719.046</ele>
        <time>2017-03-25T13:51:44Z</time>
      </trkpt>
      <trkpt lat="43.84041" lon="6.50063">
        <ele>711.76</ele>
        <time>2017-03-25T13:51:24Z</time>
      </trkpt>
      <trkpt lat="43.83978" lon="6.49982">
        <ele>710.017</ele>
        <time>2017-03-25T13:51:04Z</time>
      </trkpt>
      <trkpt lat="43.83798" lon="6.49787">
        <ele>710.065</ele>
        <time>2017-03-25T13:50:44Z</time>
      </trkpt>
      <trkpt lat="43.83786" lon="6.49757">
        <ele>710.093</ele>
        <time>2017-03-25T13:50:24Z</time>
      </trkpt>
      <trkpt lat="43.83902" lon="6.49767">
        <ele>710.008</ele>
        <time>2017-03-25T13:50:04Z</time>
      </trkpt>
      <trkpt lat="43.84129" lon="6.49634">
        <ele>710.22</ele>
        <time>2017-03-25T13:49:44Z</time>
      </trkpt>
      <trkpt lat="43.84181" lon="6.4963">
        <ele>714.673</ele>
        <time>2017-03-25T13:49:24Z</time>
      </trkpt>
      <trkpt lat="43.84109" lon="6.49544">
        <ele>714.492</ele>
        <time>2017-03-25T13:49:04Z</time>
      </trkpt>
      <trkpt lat="43.84051" lon="6.49458">
        <ele>717.524</ele>
        <time>2017-03-25T13:48:44Z</time>
      </trkpt>
      <trkpt lat="43.83995" lon="6.49403">
        <ele>718.038</ele>
        <time>2017-03-25T13:48:24Z</time>
      </trkpt>
      <trkpt lat="43.8394" lon="6.49283">
        <ele>729.816</ele>
        <time>2017-03-25T13:48:04Z</time>
      </trkpt>
      <trkpt lat="43.8394" lon="6.49283">
        <ele>729.814</ele>
        <time>2017-03-25T13:47:44Z</time>
      </trkpt>
      <trkpt lat="43.83884" lon="6.49248">
        <ele>733.458</ele>
        <time>2017-03-25T13:47:24Z</time>
      </trkpt>
      <trkpt lat="43.8383" lon="6.49204">
        <ele>741.165</ele>
        <time>2017-03-25T13:47:04Z</time>
      </trkpt>
      <trkpt lat="43.83807" lon="6.49197">
        <ele>746.663</ele>
        <time>2017-03-25T13:46:44Z</time>
      </trkpt>
      <trkpt lat="43.83772" lon="6.49114">
        <ele>755.271</ele>
        <time>2017-03-25T13:46:24Z</time>
      </trkpt>
      <trkpt lat="43.83812" lon="6.48994">
        <ele>750.208</ele>
        <time>2017-03-25T13:46:04Z</time>
      </trkpt>
      <trkpt lat="43.83842" lon="6.48976">
        <ele>751.126</ele>
        <time>2017-03-25T13:45:44Z</time>
      </trkpt>
      <trkpt lat="43.83863" lon="6.48931">
        <ele>753.533</ele>
        <time>2017-03-25T13:45:24Z</time>
      </trkpt>
      <trkpt lat="43.83875" lon="6.48917">
        <ele>756.578</ele>
        <time>2017-03-25T13:45:04Z</time>
      </trkpt>
      <trkpt lat="43.83809" lon="6.48895">
        <ele>760.918</ele>
        <time>2017-03-25T13:44:44Z</time>
      </trkpt>
      <trkpt lat="43.83764" lon="6.48768">
        <ele>771.652</ele>
        <time>2017-03-25T13:44:24Z</time>
      </trkpt>
      <trkpt lat="43.83721" lon="6.48726">
        <ele>777.01</ele>
        <time>2017-03-25T13:44:04Z</time>
      </trkpt>
      <trkpt lat="43.83627" lon="6.48711">
        <ele>777.438</ele>
        <time>2017-03-25T13:43:44Z</time>
      </trkpt>
      <trkpt lat="43.83617" lon="6.48692">
        <ele>775.472</ele>
        <time>2017-03-25T13:43:24Z</time>
      </trkpt>
      <trkpt lat="43.8364" lon="6.48643">
        <ele>780.359</ele>
        <time>2017-03-25T13:43:04Z</time>
      </trkpt>
      <trkpt lat="43.83672" lon="6.48605">
        <ele>786.477</ele>
        <time>2017-03-25T13:42:44Z</time>
      </trkpt>
      <trkpt lat="43.83687" lon="6.48548">
        <ele>789.495</ele>
        <time>2017-03-25T13:42:24Z</time>
      </trkpt>
      <trkpt lat="43.83668" lon="6.48464">
        <ele>792.208</ele>
        <time>2017-03-25T13:42:04Z</time>
      </trkpt>
      <trkpt lat="43.83656" lon="6.48388">
        <ele>798.005</ele>
        <time>2017-03-25T13:41:44Z</time>
      </trkpt>
      <trkpt lat="43.83621" lon="6.48315">
        <ele>800.532</ele>
        <time>2017-03-25T13:41:24Z</time>
      </trkpt>
      <trkpt lat="43.83597" lon="6.48254">
        <ele>805.212</ele>
        <time>2017-03-25T13:41:04Z</time>
      </trkpt>
      <trkpt lat="43.83538" lon="6.48191">
        <ele>809.034</ele>
        <time>2017-03-25T13:40:44Z</time>
      </trkpt>
      <trkpt lat="43.83496" lon="6.4817">
        <ele>805.688</ele>
        <time>2017-03-25T13:40:24Z</time>
      </trkpt>
      <trkpt lat="43.83466" lon="6.48085">
        <ele>811.496</ele>
        <time>2017-03-25T13:40:04Z</time>
      </trkpt>
      <trkpt lat="43.83473" lon="6.48027">
        <ele>818.464</ele>
        <time>2017-03-25T13:39:44Z</time>
      </trkpt>
      <trkpt lat="43.83458" lon="6.47902">
        <ele>819.258</ele>
        <time>2017-03-25T13:39:24Z</time>
      </trkpt>
      <trkpt lat="43.83441" lon="6.47873">
        <ele>816.325</ele>
        <time>2017-03-25T13:39:04Z</time>
      </trkpt>
      <trkpt lat="43.83438" lon="6.47817">
        <ele>823.593</ele>
        <time>2017-03-25T13:38:44Z</time>
      </trkpt>
      <trkpt lat="43.83427" lon="6.47778">
        <ele>825.551</ele>
        <time>2017-03-25T13:38:24Z</time>
      </trkpt>
      <trkpt lat="43.83426" lon="6.47735">
        <ele>829.708</ele>
        <time>2017-03-25T13:38:04Z</time>
      </trkpt>
      <trkpt lat="43.83389" lon="6.47684">
        <ele>824.113</ele>
        <time>2017-03-25T13:37:44Z</time>
      </trkpt>
      <trkpt lat="43.83396" lon="6.47641">
        <ele>822.585</ele>
        <time>2017-03-25T13:37:24Z</time>
      </trkpt>
      <trkpt lat="43.83394" lon="6.47604">
        <ele>825.673</ele>
        <time>2017-03-25T13:37:04Z</time>
      </trkpt>
      <trkpt lat="43.83376" lon="6.47566">
        <ele>826.014</ele>
        <time>2017-03-25T13:36:44Z</time>
      </trkpt>
      <trkpt lat="43.83404" lon="6.47467">
        <ele>839.318</ele>
        <time>2017-03-25T13:36:24Z</time>
      </trkpt>
      <trkpt lat="43.83392" lon="6.47404">
        <ele>833.186</ele>
        <time>2017-03-25T13:36:04Z</time>
      </trkpt>
      <trkpt lat="43.834" lon="6.47339">
        <ele>838.514</ele>
        <time>2017-03-25T13:35:44Z</time>
      </trkpt>
      <trkpt lat="43.83391" lon="6.47265">
        <ele>840.258</ele>
        <time>2017-03-25T13:35:24Z</time>
      </trkpt>
      <trkpt lat="43.83405" lon="6.47188">
        <ele>847.075</ele>
        <time>2017-03-25T13:35:04Z</time>
      </trkpt>
      <trkpt lat="43.83405" lon="6.47141">
        <ele>849.353</ele>
        <time>2017-03-25T13:34:44Z</time>
      </trkpt>
      <trkpt lat="43.83349" lon="6.4703">
        <ele>844.571</ele>
        <time>2017-03-25T13:34:24Z</time>
      </trkpt>
      <trkpt lat="43.83372" lon="6.46924">
        <ele>844.608</ele>
        <time>2017-03-25T13:34:04Z</time>
      </trkpt>
      <trkpt lat="43.83388" lon="6.46811">
        <ele>841.719</ele>
        <time>2017-03-25T13:33:44Z</time>
      </trkpt>
      <trkpt lat="43.8344" lon="6.46778">
        <ele>853.69</ele>
        <time>2017-03-25T13:33:24Z</time>
      </trkpt>
      <trkpt lat="43.83478" lon="6.46766">
        <ele>855.376</ele>
        <time>2017-03-25T13:33:04Z</time>
      </trkpt>
      <trkpt lat="43.83484" lon="6.46749">
        <ele>851.596</ele>
        <time>2017-03-25T13:32:44Z</time>
      </trkpt>
      <trkpt lat="43.8347" lon="6.46737">
        <ele>847.22</ele>
        <time>2017-03-25T13:32:24Z</time>
      </trkpt>
      <trkpt lat="43.83452" lon="6.46683">
        <ele>843.548</ele>
        <time>2017-03-25T13:32:04Z</time>
      </trkpt>
      <trkpt lat="43.83455" lon="6.46643">
        <ele>850.016</ele>
        <time>2017-03-25T13:31:44Z</time>
      </trkpt>
      <trkpt lat="43.8345" lon="6.46604">
        <ele>855.15</ele>
        <time>2017-03-25T13:31:24Z</time>
      </trkpt>
      <trkpt lat="43.83418" lon="6.4655">
        <ele>852.787</ele>
        <time>2017-03-25T13:31:04Z</time>
      </trkpt>
      <trkpt lat="43.83411" lon="6.46471">
        <ele>855.595</ele>
        <time>2017-03-25T13:30:44Z</time>
      </trkpt>
      <trkpt lat="43.83416" lon="6.46366">
        <ele>859.563</ele>
        <time>2017-03-25T13:30:24Z</time>
      </trkpt>
      <trkpt lat="43.83398" lon="6.46293">
        <ele>859.308</ele>
        <time>2017-03-25T13:30:04Z</time>
      </trkpt>
      <trkpt lat="43.83377" lon="6.46232">
        <ele>860.42</ele>
        <time>2017-03-25T13:29:44Z</time>
      </trkpt>
      <trkpt lat="43.83353" lon="6.46196">
        <ele>860.473</ele>
        <time>2017-03-25T13:29:24Z</time>
      </trkpt>
      <trkpt lat="43.83337" lon="6.46061">
        <ele>868.792</ele>
        <time>2017-03-25T13:29:04Z</time>
      </trkpt>
      <trkpt lat="43.83305" lon="6.46015">
        <ele>869.666</ele>
        <time>2017-03-25T13:28:44Z</time>
      </trkpt>
      <trkpt lat="43.83292" lon="6.45982">
        <ele>869.83</ele>
        <time>2017-03-25T13:28:24Z</time>
      </trkpt>
      <trkpt lat="43.83272" lon="6.45946">
        <ele>865.538</ele>
        <time>2017-03-25T13:28:04Z</time>
      </trkpt>
      <trkpt lat="43.83284" lon="6.45902">
        <ele>874.956</ele>
        <time>2017-03-25T13:27:44Z</time>
      </trkpt>
      <trkpt lat="43.83292" lon="6.45852">
        <ele>872.64</ele>
        <time>2017-03-25T13:27:24Z</time>
      </trkpt>
      <trkpt lat="43.83317" lon="6.45798">
        <ele>867.227</ele>
        <time>2017-03-25T13:27:04Z</time>
      </trkpt>
      <trkpt lat="43.83341" lon="6.45778">
        <ele>868.995</ele>
        <time>2017-03-25T13:26:44Z</time>
      </trkpt>
      <trkpt lat="43.83418" lon="6.4576">
        <ele>874.893</ele>
        <time>2017-03-25T13:26:24Z</time>
      </trkpt>
      <trkpt lat="43.83469" lon="6.45786">
        <ele>887.208</ele>
        <time>2017-03-25T13:26:04Z</time>
      </trkpt>
      <trkpt lat="43.83489" lon="6.45777">
        <ele>881.824</ele>
        <time>2017-03-25T13:25:44Z</time>
      </trkpt>
      <trkpt lat="43.83529" lon="6.45782">
        <ele>890.131</ele>
        <time>2017-03-25T13:25:24Z</time>
      </trkpt>
      <trkpt lat="43.83514" lon="6.45635">
        <ele>890.796</ele>
        <time>2017-03-25T13:25:04Z</time>
      </trkpt>
      <trkpt lat="43.83516" lon="6.45604">
        <ele>890.646</ele>
        <time>2017-03-25T13:24:44Z</time>
      </trkpt>
      <trkpt lat="43.83573" lon="6.45568">
        <ele>900.46</ele>
        <time>2017-03-25T13:24:24Z</time>
      </trkpt>
      <trkpt lat="43.83628" lon="6.45589">
        <ele>911.068</ele>
        <time>2017-03-25T13:24:04Z</time>
      </trkpt>
      <trkpt lat="43.83648" lon="6.45577">
        <ele>906.916</ele>
        <time>2017-03-25T13:23:44Z</time>
      </trkpt>
      <trkpt lat="43.83665" lon="6.4554">
        <ele>902.91</ele>
        <time>2017-03-25T13:23:24Z</time>
      </trkpt>
      <trkpt lat="43.83637" lon="6.45507">
        <ele>897.247</ele>
        <time>2017-03-25T13:23:04Z</time>
      </trkpt>
      <trkpt lat="43.83624" lon="6.45449">
        <ele>907.645</ele>
        <time>2017-03-25T13:22:44Z</time>
      </trkpt>
      <trkpt lat="43.83575" lon="6.45377">
        <ele>907.913</ele>
        <time>2017-03-25T13:22:24Z</time>
      </trkpt>
      <trkpt lat="43.83574" lon="6.45353">
        <ele>908.108</ele>
        <time>2017-03-25T13:22:04Z</time>
      </trkpt>
      <trkpt lat="43.83677" lon="6.45184">
        <ele>921.42</ele>
        <time>2017-03-25T13:21:44Z</time>
      </trkpt>
      <trkpt lat="43.83708" lon="6.45112">
        <ele>918.573</ele>
        <time>2017-03-25T13:21:24Z</time>
      </trkpt>
      <trkpt lat="43.83787" lon="6.45032">
        <ele>927.092</ele>
        <time>2017-03-25T13:21:04Z</time>
      </trkpt>
      <trkpt lat="43.83827" lon="6.44988">
        <ele>923.798</ele>
        <time>2017-03-25T13:20:44Z</time>
      </trkpt>
      <trkpt lat="43.83864" lon="6.44969">
        <ele>931.172</ele>
        <time>2017-03-25T13:20:24Z</time>
      </trkpt>
      <trkpt lat="43.83897" lon="6.44929">
        <ele>944.09</ele>
        <time>2017-03-25T13:20:04Z</time>
      </trkpt>
      <trkpt lat="43.83899" lon="6.44913">
        <ele>942.958</ele>
        <time>2017-03-25T13:19:44Z</time>
      </trkpt>
      <trkpt lat="43.83877" lon="6.4486">
        <ele>932.142</ele>
        <time>2017-03-25T13:19:24Z</time>
      </trkpt>
      <trkpt lat="43.83878" lon="6.4482">
        <ele>941.419</ele>
        <time>2017-03-25T13:19:04Z</time>
      </trkpt>
      <trkpt lat="43.83855" lon="6.44791">
        <ele>942.557</ele>
        <time>2017-03-25T13:18:44Z</time>
      </trkpt>
      <trkpt lat="43.83842" lon="6.44758">
        <ele>946.925</ele>
        <time>2017-03-25T13:18:24Z</time>
      </trkpt>
      <trkpt lat="43.83827" lon="6.44733">
        <ele>942.908</ele>
        <time>2017-03-25T13:18:04Z</time>
      </trkpt>
      <trkpt lat="43.83821" lon="6.447">
        <ele>951.417</ele>
        <time>2017-03-25T13:17:44Z</time>
      </trkpt>
      <trkpt lat="43.83791" lon="6.44669">
        <ele>962.298</ele>
        <time>2017-03-25T13:17:24Z</time>
      </trkpt>
      <trkpt lat="43.83738" lon="6.4466">
        <ele>965.718</ele>
        <time>2017-03-25T13:17:04Z</time>
      </trkpt>
      <trkpt lat="43.83678" lon="6.44686">
        <ele>953.919</ele>
        <time>2017-03-25T13:16:44Z</time>
      </trkpt>
      <trkpt lat="43.83635" lon="6.44631">
        <ele>968.243</ele>
        <time>2017-03-25T13:16:24Z</time>
      </trkpt>
      <trkpt lat="43.83585" lon="6.44603">
        <ele>974.251</ele>
        <time>2017-03-25T13:16:04Z</time>
      </trkpt>
      <trkpt lat="43.83551" lon="6.44565">
        <ele>979.199</ele>
        <time>2017-03-25T13:15:44Z</time>
      </trkpt>
      <trkpt lat="43.83553" lon="6.44493">
        <ele>965.863</ele>
        <time>2017-03-25T13:15:24Z</time>
      </trkpt>
      <trkpt lat="43.83581" lon="6.44413">
        <ele>961.99</ele>
        <time>2017-03-25T13:15:04Z</time>
      </trkpt>
      <trkpt lat="43.83605" lon="6.44309">
        <ele>954.648</ele>
        <time>2017-03-25T13:14:44Z</time>
      </trkpt>
      <trkpt lat="43.83642" lon="6.44253">
        <ele>954.456</ele>
        <time>2017-03-25T13:14:24Z</time>
      </trkpt>
      <trkpt lat="43.83647" lon="6.44137">
        <ele>944.808</ele>
        <time>2017-03-25T13:14:04Z</time>
      </trkpt>
      <trkpt lat="43.83666" lon="6.44039">
        <ele>943.408</ele>
        <time>2017-03-25T13:13:44Z</time>
      </trkpt>
      <trkpt lat="43.83712" lon="6.44003">
        <ele>945.762</ele>
        <time>2017-03-25T13:13:24Z</time>
      </trkpt>
      <trkpt lat="43.83751" lon="6.43994">
        <ele>947.422</ele>
        <time>2017-03-25T13:13:04Z</time>
      </trkpt>
      <trkpt lat="43.83762" lon="6.43923">
        <ele>948.794</ele>
        <time>2017-03-25T13:12:44Z</time>
      </trkpt>
      <trkpt lat="43.8376" lon="6.43873">
        <ele>948.728</ele>
        <time>2017-03-25T13:12:24Z</time>
      </trkpt>
      <trkpt lat="43.83751" lon="6.43826">
        <ele>946.316</ele>
        <time>2017-03-25T13:12:04Z</time>
      </trkpt>
      <trkpt lat="43.83749" lon="6.43753">
        <ele>954.744</ele>
        <time>2017-03-25T13:11:44Z</time>
      </trkpt>
      <trkpt lat="43.83758" lon="6.43733">
        <ele>955.598</ele>
        <time>2017-03-25T13:11:24Z</time>
      </trkpt>
      <trkpt lat="43.83832" lon="6.43657">
        <ele>930.925</ele>
        <time>2017-03-25T13:11:04Z</time>
      </trkpt>
      <trkpt lat="43.83871" lon="6.43639">
        <ele>927.073</ele>
        <time>2017-03-25T13:10:44Z</time>
      </trkpt>
      <trkpt lat="43.83933" lon="6.43588">
        <ele>917.811</ele>
        <time>2017-03-25T13:10:24Z</time>
      </trkpt>
      <trkpt lat="43.84004" lon="6.43512">
        <ele>913.308</ele>
        <time>2017-03-25T13:10:04Z</time>
      </trkpt>
      <trkpt lat="43.83999" lon="6.43467">
        <ele>905.926</ele>
        <time>2017-03-25T13:09:44Z</time>
      </trkpt>
      <trkpt lat="43.83971" lon="6.43401">
        <ele>890.433</ele>
        <time>2017-03-25T13:09:24Z</time>
      </trkpt>
      <trkpt lat="43.83963" lon="6.434">
        <ele>887.178</ele>
        <time>2017-03-25T13:09:04Z</time>
      </trkpt>
      <trkpt lat="43.83937" lon="6.43482">
        <ele>882.194</ele>
        <time>2017-03-25T13:08:44Z</time>
      </trkpt>
      <trkpt lat="43.83909" lon="6.43498">
        <ele>880.028</ele>
        <time>2017-03-25T13:08:24Z</time>
      </trkpt>
      <trkpt lat="43.83914" lon="6.43463">
        <ele>874.036</ele>
        <time>2017-03-25T13:08:04Z</time>
      </trkpt>
      <trkpt lat="43.83907" lon="6.43409">
        <ele>865.194</ele>
        <time>2017-03-25T13:07:44Z</time>
      </trkpt>
      <trkpt lat="43.83879" lon="6.43398">
        <ele>857.358</ele>
        <time>2017-03-25T13:07:24Z</time>
      </trkpt>
      <trkpt lat="43.83857" lon="6.43357">
        <ele>856.615</ele>
        <time>2017-03-25T13:07:04Z</time>
      </trkpt>
      <trkpt lat="43.83838" lon="6.43327">
        <ele>857.583</ele>
        <time>2017-03-25T13:06:44Z</time>
      </trkpt>
      <trkpt lat="43.83788" lon="6.43242">
        <ele>864.611</ele>
        <time>2017-03-25T13:06:24Z</time>
      </trkpt>
      <trkpt lat="43.83755" lon="6.43193">
        <ele>869.108</ele>
        <time>2017-03-25T13:06:04Z</time>
      </trkpt>
      <trkpt lat="43.83735" lon="6.43149">
        <ele>871.826</ele>
        <time>2017-03-25T13:05:44Z</time>
      </trkpt>
      <trkpt lat="43.83702" lon="6.43101">
        <ele>867.533</ele>
        <time>2017-03-25T13:05:24Z</time>
      </trkpt>
      <trkpt lat="43.83706" lon="6.43043">
        <ele>869.178</ele>
        <time>2017-03-25T13:05:04Z</time>
      </trkpt>
      <trkpt lat="43.8371" lon="6.42898">
        <ele>869.396</ele>
        <time>2017-03-25T13:04:44Z</time>
      </trkpt>
      <trkpt lat="43.83711" lon="6.42817">
        <ele>864.61</ele>
        <time>2017-03-25T13:04:24Z</time>
      </trkpt>
      <trkpt lat="43.8374" lon="6.42786">
        <ele>869.858</ele>
        <time>2017-03-25T13:04:04Z</time>
      </trkpt>
      <trkpt lat="43.83761" lon="6.42746">
        <ele>866.786</ele>
        <time>2017-03-25T13:03:44Z</time>
      </trkpt>
      <trkpt lat="43.83838" lon="6.42706">
        <ele>874.53</ele>
        <time>2017-03-25T13:03:24Z</time>
      </trkpt>
      <trkpt lat="43.83845" lon="6.42686">
        <ele>873.677</ele>
        <time>2017-03-25T13:03:04Z</time>
      </trkpt>
      <trkpt lat="43.83833" lon="6.4266">
        <ele>864.885</ele>
        <time>2017-03-25T13:02:44Z</time>
      </trkpt>
      <trkpt lat="43.8383" lon="6.426">
        <ele>861.343</ele>
        <time>2017-03-25T13:02:24Z</time>
      </trkpt>
      <trkpt lat="43.83839" lon="6.42589">
        <ele>861.208</ele>
        <time>2017-03-25T13:02:04Z</time>
      </trkpt>
      <trkpt lat="43.83889" lon="6.42585">
        <ele>870.625</ele>
        <time>2017-03-25T13:01:44Z</time>
      </trkpt>
      <trkpt lat="43.839" lon="6.42573">
        <ele>871.523</ele>
        <time>2017-03-25T13:01:24Z</time>
      </trkpt>
      <trkpt lat="43.83888" lon="6.42486">
        <ele>841.797</ele>
        <time>2017-03-25T13:01:04Z</time>
      </trkpt>
      <trkpt lat="43.83914" lon="6.42461">
        <ele>845.471</ele>
        <time>2017-03-25T13:00:44Z</time>
      </trkpt>
      <trkpt lat="43.83939" lon="6.42453">
        <ele>852.295</ele>
        <time>2017-03-25T13:00:24Z</time>
      </trkpt>
      <trkpt lat="43.83945" lon="6.42421">
        <ele>846.433</ele>
        <time>2017-03-25T13:00:04Z</time>
      </trkpt>
      <trkpt lat="43.8396" lon="6.42406">
        <ele>852.541</ele>
        <time>2017-03-25T12:59:44Z</time>
      </trkpt>
      <trkpt lat="43.83966" lon="6.42389">
        <ele>857.015</ele>
        <time>2017-03-25T12:59:24Z</time>
      </trkpt>
      <trkpt lat="43.83958" lon="6.42372">
        <ele>862.812</ele>
        <time>2017-03-25T12:59:04Z</time>
      </trkpt>
      <trkpt lat="43.83921" lon="6.42369">
        <ele>857.97</ele>
        <time>2017-03-25T12:58:44Z</time>
      </trkpt>
      <trkpt lat="43.83887" lon="6.42315">
        <ele>872.128</ele>
        <time>2017-03-25T12:58:24Z</time>
      </trkpt>
      <trkpt lat="43.83853" lon="6.42296">
        <ele>875.908</ele>
        <time>2017-03-25T12:58:04Z</time>
      </trkpt>
      <trkpt lat="43.83822" lon="6.423">
        <ele>874.422</ele>
        <time>2017-03-25T12:57:44Z</time>
      </trkpt>
      <trkpt lat="43.83799" lon="6.42298">
        <ele>875.302</ele>
        <time>2017-03-25T12:57:24Z</time>
      </trkpt>
      <trkpt lat="43.83815" lon="6.42276">
        <ele>885.249</ele>
        <time>2017-03-25T12:57:04Z</time>
      </trkpt>
      <trkpt lat="43.83762" lon="6.42242">
        <ele>890.918</ele>
        <time>2017-03-25T12:56:44Z</time>
      </trkpt>
      <trkpt lat="43.83738" lon="6.42205">
        <ele>896.442</ele>
        <time>2017-03-25T12:56:24Z</time>
      </trkpt>
      <trkpt lat="43.83706" lon="6.42202">
        <ele>893.25</ele>
        <time>2017-03-25T12:56:04Z</time>
      </trkpt>
      <trkpt lat="43.83664" lon="6.42143">
        <ele>885.628</ele>
        <time>2017-03-25T12:55:44Z</time>
      </trkpt>
      <trkpt lat="43.83672" lon="6.42047">
        <ele>902.832</ele>
        <time>2017-03-25T12:55:24Z</time>
      </trkpt>
      <trkpt lat="43.83663" lon="6.42031">
        <ele>903.779</ele>
        <time>2017-03-25T12:55:04Z</time>
      </trkpt>
      <trkpt lat="43.83639" lon="6.42014">
        <ele>908.547</ele>
        <time>2017-03-25T12:54:44Z</time>
      </trkpt>
      <trkpt lat="43.83569" lon="6.41998">
        <ele>908.675</ele>
        <time>2017-03-25T12:54:24Z</time>
      </trkpt>
      <trkpt lat="43.83549" lon="6.41971">
        <ele>910.308</ele>
        <time>2017-03-25T12:54:04Z</time>
      </trkpt>
      <trkpt lat="43.83541" lon="6.41906">
        <ele>919.213</ele>
        <time>2017-03-25T12:53:44Z</time>
      </trkpt>
      <trkpt lat="43.83485" lon="6.41819">
        <ele>923.376</ele>
        <time>2017-03-25T12:53:24Z</time>
      </trkpt>
      <trkpt lat="43.83449" lon="6.4172">
        <ele>936.516</ele>
        <time>2017-03-25T12:53:04Z</time>
      </trkpt>
      <trkpt lat="43.8342" lon="6.41697">
        <ele>937.921</ele>
        <time>2017-03-25T12:52:44Z</time>
      </trkpt>
      <trkpt lat="43.83394" lon="6.41632">
        <ele>946.725</ele>
        <time>2017-03-25T12:52:24Z</time>
      </trkpt>
      <trkpt lat="43.83362" lon="6.41568">
        <ele>949.483</ele>
        <time>2017-03-25T12:52:04Z</time>
      </trkpt>
      <trkpt lat="43.83362" lon="6.41532">
        <ele>956.791</ele>
        <time>2017-03-25T12:51:44Z</time>
      </trkpt>
      <trkpt lat="43.83358" lon="6.41492">
        <ele>960.435</ele>
        <time>2017-03-25T12:51:24Z</time>
      </trkpt>
      <trkpt lat="43.83357" lon="6.41449">
        <ele>966.362</ele>
        <time>2017-03-25T12:51:04Z</time>
      </trkpt>
      <trkpt lat="43.83346" lon="6.41368">
        <ele>973.97</ele>
        <time>2017-03-25T12:50:44Z</time>
      </trkpt>
      <trkpt lat="43.83318" lon="6.41273">
        <ele>975.988</ele>
        <time>2017-03-25T12:50:24Z</time>
      </trkpt>
      <trkpt lat="43.83315" lon="6.41243">
        <ele>975.308</ele>
        <time>2017-03-25T12:50:04Z</time>
      </trkpt>
      <trkpt lat="43.83319" lon="6.41215">
        <ele>976.509</ele>
        <time>2017-03-25T12:49:44Z</time>
      </trkpt>
      <trkpt lat="43.83334" lon="6.41183">
        <ele>981.081</ele>
        <time>2017-03-25T12:49:24Z</time>
      </trkpt>
      <trkpt lat="43.83338" lon="6.41125">
        <ele>979.641</ele>
        <time>2017-03-25T12:49:04Z</time>
      </trkpt>
      <trkpt lat="43.8333" lon="6.41083">
        <ele>986.076</ele>
        <time>2017-03-25T12:48:44Z</time>
      </trkpt>
      <trkpt lat="43.8328" lon="6.41031">
        <ele>990.54</ele>
        <time>2017-03-25T12:48:24Z</time>
      </trkpt>
      <trkpt lat="43.83201" lon="6.40956">
        <ele>997.838</ele>
        <time>2017-03-25T12:48:04Z</time>
      </trkpt>
      <trkpt lat="43.83188" lon="6.40924">
        <ele>1000.116</ele>
        <time>2017-03-25T12:47:44Z</time>
      </trkpt>
      <trkpt lat="43.8318" lon="6.40866">
        <ele>1005.19</ele>
        <time>2017-03-25T12:47:24Z</time>
      </trkpt>
      <trkpt lat="43.83181" lon="6.40821">
        <ele>1010.167</ele>
        <time>2017-03-25T12:47:04Z</time>
      </trkpt>
      <trkpt lat="43.83184" lon="6.40743">
        <ele>1021.695</ele>
        <time>2017-03-25T12:46:44Z</time>
      </trkpt>
      <trkpt lat="43.83177" lon="6.40703">
        <ele>1024.583</ele>
        <time>2017-03-25T12:46:24Z</time>
      </trkpt>
      <trkpt lat="43.83154" lon="6.40655">
        <ele>1023.808</ele>
        <time>2017-03-25T12:46:04Z</time>
      </trkpt>
      <trkpt lat="43.83136" lon="6.40605">
        <ele>1034.621</ele>
        <time>2017-03-25T12:45:44Z</time>
      </trkpt>
      <trkpt lat="43.83118" lon="6.40593">
        <ele>1034.065</ele>
        <time>2017-03-25T12:45:24Z</time>
      </trkpt>
      <trkpt lat="43.83088" lon="6.40594">
        <ele>1033.893</ele>
        <time>2017-03-25T12:45:04Z</time>
      </trkpt>
      <trkpt lat="43.83062" lon="6.40581">
        <ele>1043.463</ele>
        <time>2017-03-25T12:44:44Z</time>
      </trkpt>
      <trkpt lat="43.83042" lon="6.40582">
        <ele>1047.427</ele>
        <time>2017-03-25T12:44:24Z</time>
      </trkpt>
      <trkpt lat="43.8302" lon="6.40605">
        <ele>1044.895</ele>
        <time>2017-03-25T12:44:04Z</time>
      </trkpt>
      <trkpt lat="43.83003" lon="6.40632">
        <ele>1042.133</ele>
        <time>2017-03-25T12:43:44Z</time>
      </trkpt>
      <trkpt lat="43.82958" lon="6.40685">
        <ele>1043.957</ele>
        <time>2017-03-25T12:43:24Z</time>
      </trkpt>
      <trkpt lat="43.82912" lon="6.40732">
        <ele>1049.644</ele>
        <time>2017-03-25T12:43:04Z</time>
      </trkpt>
      <trkpt lat="43.82856" lon="6.40744">
        <ele>1060.482</ele>
        <time>2017-03-25T12:42:44Z</time>
      </trkpt>
      <trkpt lat="43.82836" lon="6.40739">
        <ele>1064.03</ele>
        <time>2017-03-25T12:42:24Z</time>
      </trkpt>
      <trkpt lat="43.82804" lon="6.40695">
        <ele>1073.908</ele>
        <time>2017-03-25T12:42:04Z</time>
      </trkpt>
      <trkpt lat="43.82795" lon="6.40692">
        <ele>1074.224</ele>
        <time>2017-03-25T12:41:44Z</time>
      </trkpt>
      <trkpt lat="43.82758" lon="6.40701">
        <ele>1072.904</ele>
        <time>2017-03-25T12:41:24Z</time>
      </trkpt>
      <trkpt lat="43.82744" lon="6.40697">
        <ele>1074.469</ele>
        <time>2017-03-25T12:41:04Z</time>
      </trkpt>
      <trkpt lat="43.82727" lon="6.40656">
        <ele>1083.273</ele>
        <time>2017-03-25T12:40:44Z</time>
      </trkpt>
      <trkpt lat="43.82731" lon="6.40647">
        <ele>1085.257</ele>
        <time>2017-03-25T12:40:24Z</time>
      </trkpt>
      <trkpt lat="43.82755" lon="6.40646">
        <ele>1085.155</ele>
        <time>2017-03-25T12:40:04Z</time>
      </trkpt>
      <trkpt lat="43.82764" lon="6.40629">
        <ele>1088.173</ele>
        <time>2017-03-25T12:39:44Z</time>
      </trkpt>
      <trkpt lat="43.82717" lon="6.40595">
        <ele>1097.157</ele>
        <time>2017-03-25T12:39:24Z</time>
      </trkpt>
      <trkpt lat="43.82688" lon="6.40598">
        <ele>1096.984</ele>
        <time>2017-03-25T12:39:04Z</time>
      </trkpt>
      <trkpt lat="43.82629" lon="6.40576">
        <ele>1108.292</ele>
        <time>2017-03-25T12:38:44Z</time>
      </trkpt>
      <trkpt lat="43.8261" lon="6.40554">
        <ele>1115.41</ele>
        <time>2017-03-25T12:38:24Z</time>
      </trkpt>
      <trkpt lat="43.82541" lon="6.40526">
        <ele>1119.108</ele>
        <time>2017-03-25T12:38:04Z</time>
      </trkpt>
      <trkpt lat="43.82523" lon="6.40507">
        <ele>1123.221</ele>
        <time>2017-03-25T12:37:44Z</time>
      </trkpt>
      <trkpt lat="43.82514" lon="6.40479">
        <ele>1130.029</ele>
        <time>2017-03-25T12:37:24Z</time>
      </trkpt>
      <trkpt lat="43.82495" lon="6.40474">
        <ele>1126.966</ele>
        <time>2017-03-25T12:37:04Z</time>
      </trkpt>
      <trkpt lat="43.82465" lon="6.40448">
        <ele>1133.153</ele>
        <time>2017-03-25T12:36:44Z</time>
      </trkpt>
      <trkpt lat="43.82345" lon="6.40372">
        <ele>1142.037</ele>
        <time>2017-03-25T12:36:24Z</time>
      </trkpt>
      <trkpt lat="43.82333" lon="6.40351">
        <ele>1144.955</ele>
        <time>2017-03-25T12:36:04Z</time>
      </trkpt>
      <trkpt lat="43.82301" lon="6.40228">
        <ele>1160.293</ele>
        <time>2017-03-25T12:35:44Z</time>
      </trkpt>
      <trkpt lat="43.82356" lon="6.40254">
        <ele>1168.137</ele>
        <time>2017-03-25T12:35:24Z</time>
      </trkpt>
      <trkpt lat="43.82319" lon="6.40128">
        <ele>1180.864</ele>
        <time>2017-03-25T12:35:04Z</time>
      </trkpt>
      <trkpt lat="43.82292" lon="6.39987">
        <ele>1195.242</ele>
        <time>2017-03-25T12:34:44Z</time>
      </trkpt>
      <trkpt lat="43.82269" lon="6.39909">
        <ele>1207.09</ele>
        <time>2017-03-25T12:34:24Z</time>
      </trkpt>
      <trkpt lat="43.82249" lon="6.39908">
        <ele>1203.608</ele>
        <time>2017-03-25T12:34:04Z</time>
      </trkpt>
      <trkpt lat="43.82242" lon="6.39884">
        <ele>1207.814</ele>
        <time>2017-03-25T12:33:44Z</time>
      </trkpt>
      <trkpt lat="43.82218" lon="6.39923">
        <ele>1206.068</ele>
        <time>2017-03-25T12:33:24Z</time>
      </trkpt>
      <trkpt lat="43.82202" lon="6.39933">
        <ele>1207.765</ele>
        <time>2017-03-25T12:33:04Z</time>
      </trkpt>
      <trkpt lat="43.82171" lon="6.3993">
        <ele>1213.46</ele>
        <time>2017-03-25T12:32:44Z</time>
      </trkpt>
      <trkpt lat="43.82138" lon="6.39901">
        <ele>1220.444</ele>
        <time>2017-03-25T12:32:24Z</time>
      </trkpt>
      <trkpt lat="43.82086" lon="6.39912">
        <ele>1221.512</ele>
        <time>2017-03-25T12:32:04Z</time>
      </trkpt>
      <trkpt lat="43.82033" lon="6.39872">
        <ele>1229.89</ele>
        <time>2017-03-25T12:31:44Z</time>
      </trkpt>
      <trkpt lat="43.81973" lon="6.39793">
        <ele>1239.314</ele>
        <time>2017-03-25T12:31:24Z</time>
      </trkpt>
      <trkpt lat="43.81958" lon="6.39753">
        <ele>1243.131</ele>
        <time>2017-03-25T12:31:04Z</time>
      </trkpt>
      <trkpt lat="43.81935" lon="6.39727">
        <ele>1242.849</ele>
        <time>2017-03-25T12:30:44Z</time>
      </trkpt>
      <trkpt lat="43.81911" lon="6.39721">
        <ele>1241.967</ele>
        <time>2017-03-25T12:30:24Z</time>
      </trkpt>
      <trkpt lat="43.81898" lon="6.39691">
        <ele>1243.508</ele>
        <time>2017-03-25T12:30:04Z</time>
      </trkpt>
      <trkpt lat="43.8189" lon="6.39649">
        <ele>1245.317</ele>
        <time>2017-03-25T12:29:44Z</time>
      </trkpt>
      <trkpt lat="43.81886" lon="6.39571">
        <ele>1247.97</ele>
        <time>2017-03-25T12:29:24Z</time>
      </trkpt>
      <trkpt lat="43.81881" lon="6.39562">
        <ele>1247.238</ele>
        <time>2017-03-25T12:29:04Z</time>
      </trkpt>
      <trkpt lat="43.81879" lon="6.3954">
        <ele>1246.811</ele>
        <time>2017-03-25T12:28:44Z</time>
      </trkpt>
      <trkpt lat="43.81859" lon="6.39481">
        <ele>1241.635</ele>
        <time>2017-03-25T12:28:24Z</time>
      </trkpt>
      <trkpt lat="43.81832" lon="6.39459">
        <ele>1236.363</ele>
        <time>2017-03-25T12:28:04Z</time>
      </trkpt>
      <trkpt lat="43.81807" lon="6.39459">
        <ele>1230.841</ele>
        <time>2017-03-25T12:27:44Z</time>
      </trkpt>
      <trkpt lat="43.81791" lon="6.39441">
        <ele>1226.865</ele>
        <time>2017-03-25T12:27:24Z</time>
      </trkpt>
      <trkpt lat="43.81788" lon="6.39396">
        <ele>1225.982</ele>
        <time>2017-03-25T12:27:04Z</time>
      </trkpt>
      <trkpt lat="43.81774" lon="6.39378">
        <ele>1223.56</ele>
        <time>2017-03-25T12:26:44Z</time>
      </trkpt>
      <trkpt lat="43.81706" lon="6.39379">
        <ele>1216.548</ele>
        <time>2017-03-25T12:26:24Z</time>
      </trkpt>
      <trkpt lat="43.81624" lon="6.39434">
        <ele>1210.208</ele>
        <time>2017-03-25T12:26:04Z</time>
      </trkpt>
      <trkpt lat="43.81568" lon="6.39413">
        <ele>1208.515</ele>
        <time>2017-03-25T12:25:44Z</time>
      </trkpt>
      <trkpt lat="43.81533" lon="6.39381">
        <ele>1207.505</ele>
        <time>2017-03-25T12:25:24Z</time>
      </trkpt>
      <trkpt lat="43.81492" lon="6.39359">
        <ele>1206.844</ele>
        <time>2017-03-25T12:25:04Z</time>
      </trkpt>
      <trkpt lat="43.81352" lon="6.39391">
        <ele>1205.013</ele>
        <time>2017-03-25T12:24:44Z</time>
      </trkpt>
      <trkpt lat="43.81263" lon="6.39366">
        <ele>1205.017</ele>
        <time>2017-03-25T12:24:24Z</time>
      </trkpt>
      <trkpt lat="43.81211" lon="6.39323">
        <ele>1204.635</ele>
        <time>2017-03-25T12:24:04Z</time>
      </trkpt>
      <trkpt lat="43.81139" lon="6.39276">
        <ele>1202.193</ele>
        <time>2017-03-25T12:23:44Z</time>
      </trkpt>
      <trkpt lat="43.81084" lon="6.39248">
        <ele>1203.137</ele>
        <time>2017-03-25T12:23:24Z</time>
      </trkpt>
      <trkpt lat="43.81033" lon="6.39248">
        <ele>1204.154</ele>
        <time>2017-03-25T12:23:04Z</time>
      </trkpt>
      <trkpt lat="43.81" lon="6.39222">
        <ele>1205.062</ele>
        <time>2017-03-25T12:22:44Z</time>
      </trkpt>
      <trkpt lat="43.80961" lon="6.39198">
        <ele>1205.02</ele>
        <time>2017-03-25T12:22:24Z</time>
      </trkpt>
      <trkpt lat="43.8091" lon="6.39155">
        <ele>1205.008</ele>
        <time>2017-03-25T12:22:04Z</time>
      </trkpt>
      <trkpt lat="43.80896" lon="6.39119">
        <ele>1205.219</ele>
        <time>2017-03-25T12:21:44Z</time>
      </trkpt>
      <trkpt lat="43.80861" lon="6.3905">
        <ele>1206.481</ele>
        <time>2017-03-25T12:21:24Z</time>
      </trkpt>
      <trkpt lat="43.80839" lon="6.39042">
        <ele>1207.067</ele>
        <time>2017-03-25T12:21:04Z</time>
      </trkpt>
      <trkpt lat="43.80827" lon="6.3902">
        <ele>1209.081</ele>
        <time>2017-03-25T12:20:44Z</time>
      </trkpt>
      <trkpt lat="43.80824" lon="6.38991">
        <ele>1210.815</ele>
        <time>2017-03-25T12:20:24Z</time>
      </trkpt>
      <trkpt lat="43.80824" lon="6.38991">
        <ele>1210.893</ele>
        <time>2017-03-25T12:20:04Z</time>
      </trkpt>
      <trkpt lat="43.80814" lon="6.38991">
        <ele>1211.221</ele>
        <time>2017-03-25T12:19:44Z</time>
      </trkpt>
      <trkpt lat="43.80793" lon="6.39012">
        <ele>1211.585</ele>
        <time>2017-03-25T12:19:24Z</time>
      </trkpt>
      <trkpt lat="43.8078" lon="6.39016">
        <ele>1212.332</ele>
        <time>2017-03-25T12:19:04Z</time>
      </trkpt>
      <trkpt lat="43.80755" lon="6.39041">
        <ele>1213.68</ele>
        <time>2017-03-25T12:18:44Z</time>
      </trkpt>
      <trkpt lat="43.80733" lon="6.39048">
        <ele>1213.158</ele>
        <time>2017-03-25T12:18:24Z</time>
      </trkpt>
      <trkpt lat="43.8069" lon="6.3905">
        <ele>1209.908</ele>
        <time>2017-03-25T12:18:04Z</time>
      </trkpt>
      <trkpt lat="43.80655" lon="6.39072">
        <ele>1209.022</ele>
        <time>2017-03-25T12:17:44Z</time>
      </trkpt>
      <trkpt lat="43.80585" lon="6.39142">
        <ele>1208.202</ele>
        <time>2017-03-25T12:17:24Z</time>
      </trkpt>
      <trkpt lat="43.80537" lon="6.39222">
        <ele>1205.849</ele>
        <time>2017-03-25T12:17:04Z</time>
      </trkpt>
      <trkpt lat="43.80516" lon="6.39263">
        <ele>1204.559</ele>
        <time>2017-03-25T12:16:44Z</time>
      </trkpt>
      <trkpt lat="43.80489" lon="6.39309">
        <ele>1200.043</ele>
        <time>2017-03-25T12:16:24Z</time>
      </trkpt>
      <trkpt lat="43.80464" lon="6.39361">
        <ele>1196.281</ele>
        <time>2017-03-25T12:16:04Z</time>
      </trkpt>
      <trkpt lat="43.80447" lon="6.39405">
        <ele>1192.579</ele>
        <time>2017-03-25T12:15:44Z</time>
      </trkpt>
      <trkpt lat="43.80442" lon="6.39454">
        <ele>1189.123</ele>
        <time>2017-03-25T12:15:24Z</time>
      </trkpt>
      <trkpt lat="43.80434" lon="6.39472">
        <ele>1185.25</ele>
        <time>2017-03-25T12:15:04Z</time>
      </trkpt>
      <trkpt lat="43.80434" lon="6.39501">
        <ele>1179.428</ele>
        <time>2017-03-25T12:14:44Z</time>
      </trkpt>
      <trkpt lat="43.80467" lon="6.39523">
        <ele>1177.876</ele>
        <time>2017-03-25T12:14:24Z</time>
      </trkpt>
      <trkpt lat="43.80482" lon="6.39541">
        <ele>1175.308</ele>
        <time>2017-03-25T12:14:04Z</time>
      </trkpt>
      <trkpt lat="43.80499" lon="6.39548">
        <ele>1177.111</ele>
        <time>2017-03-25T12:13:44Z</time>
      </trkpt>
      <trkpt lat="43.80515" lon="6.39589">
        <ele>1170.883</ele>
        <time>2017-03-25T12:13:24Z</time>
      </trkpt>
      <trkpt lat="43.80502" lon="6.39585">
        <ele>1167.023</ele>
        <time>2017-03-25T12:13:04Z</time>
      </trkpt>
      <trkpt lat="43.80501" lon="6.39597">
        <ele>1163.064</ele>
        <time>2017-03-25T12:12:44Z</time>
      </trkpt>
      <trkpt lat="43.80529" lon="6.39652">
        <ele>1158.178</ele>
        <time>2017-03-25T12:12:24Z</time>
      </trkpt>
      <trkpt lat="43.80542" lon="6.39695">
        <ele>1152.316</ele>
        <time>2017-03-25T12:12:04Z</time>
      </trkpt>
      <trkpt lat="43.80553" lon="6.3975">
        <ele>1149.444</ele>
        <time>2017-03-25T12:11:44Z</time>
      </trkpt>
      <trkpt lat="43.80549" lon="6.39812">
        <ele>1140.568</ele>
        <time>2017-03-25T12:11:24Z</time>
      </trkpt>
      <trkpt lat="43.80528" lon="6.39898">
        <ele>1125.715</ele>
        <time>2017-03-25T12:11:04Z</time>
      </trkpt>
      <trkpt lat="43.80523" lon="6.39891">
        <ele>1123.043</ele>
        <time>2017-03-25T12:10:44Z</time>
      </trkpt>
      <trkpt lat="43.80518" lon="6.39847">
        <ele>1120.981</ele>
        <time>2017-03-25T12:10:24Z</time>
      </trkpt>
      <trkpt lat="43.80513" lon="6.39838">
        <ele>1119.408</ele>
        <time>2017-03-25T12:10:04Z</time>
      </trkpt>
      <trkpt lat="43.80475" lon="6.39944">
        <ele>1100.426</ele>
        <time>2017-03-25T12:09:44Z</time>
      </trkpt>
      <trkpt lat="43.80455" lon="6.39976">
        <ele>1094.833</ele>
        <time>2017-03-25T12:09:24Z</time>
      </trkpt>
      <trkpt lat="43.80402" lon="6.40101">
        <ele>1078.578</ele>
        <time>2017-03-25T12:09:04Z</time>
      </trkpt>
      <trkpt lat="43.80395" lon="6.40101">
        <ele>1075.821</ele>
        <time>2017-03-25T12:08:44Z</time>
      </trkpt>
      <trkpt lat="43.80349" lon="6.40023">
        <ele>1064.045</ele>
        <time>2017-03-25T12:08:24Z</time>
      </trkpt>
      <trkpt lat="43.80343" lon="6.40027">
        <ele>1062.233</ele>
        <time>2017-03-25T12:08:04Z</time>
      </trkpt>
      <trkpt lat="43.80315" lon="6.40082">
        <ele>1056.091</ele>
        <time>2017-03-25T12:07:44Z</time>
      </trkpt>
      <trkpt lat="43.80312" lon="6.40109">
        <ele>1055.015</ele>
        <time>2017-03-25T12:07:24Z</time>
      </trkpt>
      <trkpt lat="43.80307" lon="6.40123">
        <ele>1053.762</ele>
        <time>2017-03-25T12:07:04Z</time>
      </trkpt>
      <trkpt lat="43.80288" lon="6.40137">
        <ele>1048.77</ele>
        <time>2017-03-25T12:06:44Z</time>
      </trkpt>
      <trkpt lat="43.80271" lon="6.40104">
        <ele>1045.588</ele>
        <time>2017-03-25T12:06:24Z</time>
      </trkpt>
      <trkpt lat="43.80257" lon="6.40052">
        <ele>1037.308</ele>
        <time>2017-03-25T12:06:04Z</time>
      </trkpt>
      <trkpt lat="43.80248" lon="6.40051">
        <ele>1032.917</ele>
        <time>2017-03-25T12:05:44Z</time>
      </trkpt>
      <trkpt lat="43.80195" lon="6.40094">
        <ele>1023.161</ele>
        <time>2017-03-25T12:05:24Z</time>
      </trkpt>
      <trkpt lat="43.80135" lon="6.40115">
        <ele>1012.648</ele>
        <time>2017-03-25T12:05:04Z</time>
      </trkpt>
      <trkpt lat="43.80121" lon="6.40108">
        <ele>1009.568</ele>
        <time>2017-03-25T12:04:44Z</time>
      </trkpt>
      <trkpt lat="43.80095" lon="6.40126">
        <ele>1005.322</ele>
        <time>2017-03-25T12:04:24Z</time>
      </trkpt>
      <trkpt lat="43.80048" lon="6.40116">
        <ele>989.64</ele>
        <time>2017-03-25T12:04:04Z</time>
      </trkpt>
      <trkpt lat="43.80005" lon="6.40114">
        <ele>982.598</ele>
        <time>2017-03-25T12:03:44Z</time>
      </trkpt>
      <trkpt lat="43.79988" lon="6.4013">
        <ele>982.322</ele>
        <time>2017-03-25T12:03:24Z</time>
      </trkpt>
      <trkpt lat="43.79976" lon="6.40159">
        <ele>982.359</ele>
        <time>2017-03-25T12:03:04Z</time>
      </trkpt>
      <trkpt lat="43.79961" lon="6.40169">
        <ele>979.047</ele>
        <time>2017-03-25T12:02:44Z</time>
      </trkpt>
      <trkpt lat="43.7994" lon="6.40172">
        <ele>973.435</ele>
        <time>2017-03-25T12:02:24Z</time>
      </trkpt>
      <trkpt lat="43.7994" lon="6.40172">
        <ele>973.408</ele>
        <time>2017-03-25T12:02:04Z</time>
      </trkpt>
      <trkpt lat="43.79933" lon="6.40172">
        <ele>971.011</ele>
        <time>2017-03-25T12:01:44Z</time>
      </trkpt>
      <trkpt lat="43.79926" lon="6.4018">
        <ele>970.365</ele>
        <time>2017-03-25T12:01:24Z</time>
      </trkpt>
      <trkpt lat="43.79926" lon="6.4018">
        <ele>970.315</ele>
        <time>2017-03-25T12:01:24Z</time>
      </trkpt>
      <trkpt lat="43.79926" lon="6.4018">
        <ele>970.38</ele>
        <time>2017-03-25T12:01:24Z</time>
      </trkpt>
      <trkpt lat="43.79926" lon="6.40173">
        <ele>969.094</ele>
        <time>2020-02-21T22:19:53Z</time>
      </trkpt>
      <trkpt lat="43.79917" lon="6.40162">
        <ele>965.3</ele>
      </trkpt>
      <trkpt lat="43.79908" lon="6.40188">
        <ele>963.5</ele>
      </trkpt>
      <trkpt lat="43.79903" lon="6.40211">
        <ele>963.8</ele>
      </trkpt>
      <trkpt lat="43.79901" lon="6.40227">
        <ele>964.5</ele>
      </trkpt>
      <trkpt lat="43.79907" lon="6.40242">
        <ele>965.6</ele>
      </trkpt>
      <trkpt lat="43.79919" lon="6.4026">
        <ele>966</ele>
      </trkpt>
    </trkseg>
  </trk>
</gpx>